• Join FlightAware (Why Join?)
  • Login
  • US Flag 
03:30AM EDT


 

Airport Tracker/Info


-or-


 

Live Flight TrackerFlight Track Log ✈ CNS794 ✈ 04-Dec-2013 ✈ KOWD - KHYA

Flight Track Log - Related Links

Times and Time Zones

All times are in EST time to prevent confusion due to time zone crossing. See the CNS794 flight status page for this flight to view local times or setup timezone preferences in your user account.

Time Position Orientation Groundspeed Altitude Reporting Facility
EST Latitude Longitude Course Direction KTS MPH feet Rate Location/Type
08:23AM 42.2000 -71.1833 200° South 90 104 1,200  Level KA90
08:24AM 42.1667 -71.2000 200° South 200 230 2,100 960 Climbing KA90
08:25AM 42.1167 -71.1667 154° Southeast 226 260 3,100 600 Climbing KA90
08:26AM 42.0833 -71.0833 118° Southeast 242 278 3,300 720 Climbing KA90
08:27AM 42.0500 -71.0167 124° Southeast 226 260 4,600 900 Climbing KA90
08:28AM 42.0167 -70.9500 124° Southeast 234 269 5,100 240 Climbing KA90
08:29AM 41.9667 -70.8667 129° Southeast 266 306 5,100  Level KA90
08:30AM 41.9333 -70.7833 118° Southeast 270 311 5,100  Level KA90
08:31AM 41.8833 -70.6833 124° Southeast 275 316 5,100  Level KA90
08:32AM 41.8500 -70.6000 118° Southeast 271 312 5,100 -240 Level KA90
08:33AM 41.8000 -70.5167 129° Southeast 268 308 4,700 -600 Descending KA90
08:34AM 41.7500 -70.4500 135° Southeast 267 307 3,900 -840 Descending KA90
08:35AM 41.7000 -70.4000 143° Southeast 213 245 3,100 -420 Descending KA90
08:36AM 41.6500 -70.3667 154° Southeast 184 212 3,100 -60 Level KA90
08:37AM 41.6167 -70.3167 132° Southeast 177 204 3,000 -240 Descending KA90
08:38AM 41.6000 -70.2667 114° Southeast 163 188 2,700 -660 Descending KA90
08:39AM 41.6333 -70.2500 20° North 112 129 1,700 -1,080 Descending KA90
08:40AM 41.6500 -70.2667 323° Northwest 66 76 600 -780 Descending KA90
08:41AM 41.6667 -70.2833 323° Northwest 62 71 200 -420 Descending KA90
08:44AM 41.6693 -70.2804 90° East  Level Estimated
08:51AM 41.6693 -70.2804 90° East  Level Estimated
08:52AM 41.6693 -70.2804 90° East  Level Estimated